Terminal Aerodrome Forecast
Issued by NWS

Home | Current Version | Previous Version | Graphics & Text | Print | Product List | Glossary On
Versions: 1 2 3 4 5 6 7 8 9 10 11 12 13 14 15 16 17 18 19 20 21 22
252
FTUS43 KIWX 210402 AAC
TAFSBN
TAF AMD
KSBN 210402Z 2104/2124 14004KT 6SM BR OVC020
      TEMPO 2104/2106 3SM BR SCT005 OVC015
     FM210600 15006KT 2SM BR VCSH OVC007
      TEMPO 2106/2109 3/4SM BR OVC003
     FM210900 16007KT 5SM BR OVC007
     FM211400 17010KT 6SM BR BKN020=

USA.gov is the U.S. government's official web portal to all federal, state and local government web resources and services.